sensor_id;sensor_type;location;lat;lon;timestamp;P1;durP1;ratioP1;P2;durP2;ratioP2
80163;SDS011;70071;55.130;61.268;2023-07-13T00:02:23;5.13;;;3.35;;
80163;SDS011;70071;55.130;61.268;2023-07-13T00:04:52;4.93;;;3.03;;
80163;SDS011;70071;55.130;61.268;2023-07-13T00:07:18;3.78;;;3.00;;
80163;SDS011;70071;55.130;61.268;2023-07-13T00:09:47;4.25;;;2.80;;
80163;SDS011;70071;55.130;61.268;2023-07-13T00:12:23;5.35;;;2.95;;
80163;SDS011;70071;55.130;61.268;2023-07-13T00:15:02;5.38;;;3.25;;
80163;SDS011;70071;55.130;61.268;2023-07-13T00:17:32;4.72;;;3.20;;
80163;SDS011;70071;55.130;61.268;2023-07-13T00:19:58;4.88;;;3.00;;
80163;SDS011;70071;55.130;61.268;2023-07-13T00:22:24;7.38;;;3.10;;
80163;SDS011;70071;55.130;61.268;2023-07-13T00:24:54;4.35;;;2.97;;
80163;SDS011;70071;55.130;61.268;2023-07-13T00:27:23;4.10;;;2.90;;
80163;SDS011;70071;55.130;61.268;2023-07-13T00:29:51;5.43;;;3.30;;
80163;SDS011;70071;55.130;61.268;2023-07-13T00:32:18;3.25;;;2.70;;
80163;SDS011;70071;55.130;61.268;2023-07-13T00:34:44;4.00;;;3.03;;
80163;SDS011;70071;55.130;61.268;2023-07-13T00:37:10;5.07;;;2.63;;
80163;SDS011;70071;55.130;61.268;2023-07-13T00:39:36;4.63;;;2.92;;
80163;SDS011;70071;55.130;61.268;2023-07-13T00:42:03;4.82;;;2.90;;
80163;SDS011;70071;55.130;61.268;2023-07-13T00:44:29;4.32;;;2.30;;
80163;SDS011;70071;55.130;61.268;2023-07-13T00:46:55;4.88;;;2.67;;
80163;SDS011;70071;55.130;61.268;2023-07-13T00:49:24;4.05;;;2.42;;
80163;SDS011;70071;55.130;61.268;2023-07-13T00:54:29;3.45;;;2.95;;
80163;SDS011;70071;55.130;61.268;2023-07-13T00:56:58;3.33;;;2.60;;
80163;SDS011;70071;55.130;61.268;2023-07-13T00:59:26;3.30;;;2.45;;
80163;SDS011;70071;55.130;61.268;2023-07-13T01:04:18;2.70;;;2.30;;
80163;SDS011;70071;55.130;61.268;2023-07-13T01:06:44;3.30;;;2.45;;
80163;SDS011;70071;55.130;61.268;2023-07-13T01:09:12;5.10;;;2.78;;
80163;SDS011;70071;55.130;61.268;2023-07-13T01:11:40;3.65;;;2.47;;
80163;SDS011;70071;55.130;61.268;2023-07-13T01:14:06;3.28;;;2.53;;
80163;SDS011;70071;55.130;61.268;2023-07-13T01:16:33;2.70;;;2.33;;
80163;SDS011;70071;55.130;61.268;2023-07-13T01:19:01;5.68;;;2.47;;
80163;SDS011;70071;55.130;61.268;2023-07-13T01:21:33;7.32;;;2.35;;
80163;SDS011;70071;55.130;61.268;2023-07-13T01:24:00;3.92;;;1.63;;
80163;SDS011;70071;55.130;61.268;2023-07-13T01:26:27;3.60;;;1.60;;
80163;SDS011;70071;55.130;61.268;2023-07-13T01:31:21;2.63;;;1.60;;
80163;SDS011;70071;55.130;61.268;2023-07-13T01:36:13;2.25;;;1.40;;
80163;SDS011;70071;55.130;61.268;2023-07-13T01:38:39;2.75;;;1.15;;
80163;SDS011;70071;55.130;61.268;2023-07-13T01:41:05;2.50;;;1.20;;
80163;SDS011;70071;55.130;61.268;2023-07-13T01:43:30;1.48;;;1.23;;
80163;SDS011;70071;55.130;61.268;2023-07-13T01:45:57;1.73;;;1.10;;
80163;SDS011;70071;55.130;61.268;2023-07-13T01:48:23;2.33;;;1.00;;
80163;SDS011;70071;55.130;61.268;2023-07-13T01:50:49;2.33;;;1.02;;
80163;SDS011;70071;55.130;61.268;2023-07-13T01:53:15;3.05;;;1.15;;
80163;SDS011;70071;55.130;61.268;2023-07-13T01:55:41;2.22;;;1.05;;
80163;SDS011;70071;55.130;61.268;2023-07-13T01:58:07;2.95;;;1.10;;
80163;SDS011;70071;55.130;61.268;2023-07-13T02:00:33;2.58;;;1.10;;
80163;SDS011;70071;55.130;61.268;2023-07-13T02:02:59;3.03;;;1.30;;
80163;SDS011;70071;55.130;61.268;2023-07-13T02:05:25;2.53;;;1.10;;
80163;SDS011;70071;55.130;61.268;2023-07-13T02:07:51;1.67;;;1.10;;
80163;SDS011;70071;55.130;61.268;2023-07-13T02:10:18;1.60;;;1.08;;
80163;SDS011;70071;55.130;61.268;2023-07-13T15:59:41;5.00;;;3.30;;
80163;SDS011;70071;55.130;61.268;2023-07-13T16:02:11;3.78;;;3.25;;
80163;SDS011;70071;55.130;61.268;2023-07-13T16:04:43;3.53;;;2.33;;
80163;SDS011;70071;55.130;61.268;2023-07-13T16:07:09;4.20;;;2.03;;
80163;SDS011;70071;55.130;61.268;2023-07-13T16:09:36;2.95;;;1.60;;
80163;SDS011;70071;55.130;61.268;2023-07-13T16:12:08;2.63;;;1.75;;
80163;SDS011;70071;55.130;61.268;2023-07-13T16:14:37;3.65;;;1.80;;
80163;SDS011;70071;55.130;61.268;2023-07-13T16:17:03;1.60;;;1.42;;
80163;SDS011;70071;55.130;61.268;2023-07-13T16:19:31;2.67;;;2.08;;
80163;SDS011;70071;55.130;61.268;2023-07-13T16:21:59;4.57;;;2.10;;
80163;SDS011;70071;55.130;61.268;2023-07-13T16:24:26;3.10;;;1.67;;
80163;SDS011;70071;55.130;61.268;2023-07-13T16:26:52;5.60;;;1.95;;
80163;SDS011;70071;55.130;61.268;2023-07-13T16:29:22;3.08;;;1.67;;
80163;SDS011;70071;55.130;61.268;2023-07-13T16:32:05;5.07;;;2.95;;
80163;SDS011;70071;55.130;61.268;2023-07-13T16:34:37;2.53;;;2.10;;
80163;SDS011;70071;55.130;61.268;2023-07-13T16:37:11;3.17;;;2.67;;
80163;SDS011;70071;55.130;61.268;2023-07-13T16:39:41;3.35;;;2.22;;
80163;SDS011;70071;55.130;61.268;2023-07-13T16:42:11;2.22;;;1.75;;
80163;SDS011;70071;55.130;61.268;2023-07-13T16:44:37;3.30;;;2.20;;
80163;SDS011;70071;55.130;61.268;2023-07-13T16:47:05;3.45;;;2.88;;
80163;SDS011;70071;55.130;61.268;2023-07-13T16:49:38;3.10;;;2.20;;
80163;SDS011;70071;55.130;61.268;2023-07-13T16:52:04;3.20;;;2.42;;
80163;SDS011;70071;55.130;61.268;2023-07-13T16:54:31;4.50;;;2.67;;
80163;SDS011;70071;55.130;61.268;2023-07-13T16:57:00;4.35;;;3.20;;
80163;SDS011;70071;55.130;61.268;2023-07-13T16:59:31;4.38;;;3.72;;
80163;SDS011;70071;55.130;61.268;2023-07-13T17:02:00;6.65;;;4.03;;
80163;SDS011;70071;55.130;61.268;2023-07-13T17:04:29;5.65;;;3.42;;
80163;SDS011;70071;55.130;61.268;2023-07-13T17:06:56;4.05;;;2.92;;
80163;SDS011;70071;55.130;61.268;2023-07-13T17:09:23;4.78;;;2.92;;
80163;SDS011;70071;55.130;61.268;2023-07-13T17:11:50;8.68;;;3.35;;
80163;SDS011;70071;55.130;61.268;2023-07-13T17:14:21;7.05;;;3.83;;
80163;SDS011;70071;55.130;61.268;2023-07-13T17:16:49;4.00;;;3.47;;
80163;SDS011;70071;55.130;61.268;2023-07-13T17:19:17;8.40;;;6.00;;
80163;SDS011;70071;55.130;61.268;2023-07-13T17:21:45;23.35;;;15.40;;
80163;SDS011;70071;55.130;61.268;2023-07-13T17:24:16;16.63;;;11.27;;
80163;SDS011;70071;55.130;61.268;2023-07-13T17:26:45;8.15;;;6.68;;
80163;SDS011;70071;55.130;61.268;2023-07-13T17:29:12;10.73;;;8.02;;
80163;SDS011;70071;55.130;61.268;2023-07-13T17:31:38;7.75;;;5.85;;
80163;SDS011;70071;55.130;61.268;2023-07-13T17:34:04;6.75;;;5.65;;
80163;SDS011;70071;55.130;61.268;2023-07-13T17:36:37;7.97;;;5.85;;
80163;SDS011;70071;55.130;61.268;2023-07-13T17:39:08;7.15;;;5.20;;
80163;SDS011;70071;55.130;61.268;2023-07-13T17:41:42;7.65;;;5.22;;
80163;SDS011;70071;55.130;61.268;2023-07-13T17:44:10;6.45;;;4.28;;
80163;SDS011;70071;55.130;61.268;2023-07-13T17:46:38;8.07;;;4.50;;
80163;SDS011;70071;55.130;61.268;2023-07-13T17:49:13;5.70;;;3.60;;
80163;SDS011;70071;55.130;61.268;2023-07-13T17:51:46;7.75;;;3.25;;
80163;SDS011;70071;55.130;61.268;2023-07-13T17:54:13;5.57;;;3.17;;
80163;SDS011;70071;55.130;61.268;2023-07-13T17:56:40;4.47;;;3.78;;
80163;SDS011;70071;55.130;61.268;2023-07-13T17:59:06;5.82;;;3.60;;
80163;SDS011;70071;55.130;61.268;2023-07-13T18:01:32;7.70;;;4.30;;
80163;SDS011;70071;55.130;61.268;2023-07-13T18:04:05;4.78;;;3.90;;
80163;SDS011;70071;55.130;61.268;2023-07-13T18:06:34;5.05;;;4.13;;
80163;SDS011;70071;55.130;61.268;2023-07-13T18:09:15;4.43;;;3.90;;
80163;SDS011;70071;55.130;61.268;2023-07-13T18:11:45;5.85;;;3.85;;
80163;SDS011;70071;55.130;61.268;2023-07-13T18:14:12;5.30;;;3.10;;
80163;SDS011;70071;55.130;61.268;2023-07-13T18:16:39;4.53;;;3.33;;
80163;SDS011;70071;55.130;61.268;2023-07-13T18:19:17;4.32;;;3.28;;
80163;SDS011;70071;55.130;61.268;2023-07-13T18:22:13;5.05;;;3.28;;
80163;SDS011;70071;55.130;61.268;2023-07-13T18:24:42;4.75;;;3.58;;
80163;SDS011;70071;55.130;61.268;2023-07-13T18:27:08;8.80;;;4.28;;
80163;SDS011;70071;55.130;61.268;2023-07-13T18:29:35;5.72;;;4.35;;
80163;SDS011;70071;55.130;61.268;2023-07-13T18:32:02;4.40;;;3.60;;
80163;SDS011;70071;55.130;61.268;2023-07-13T18:34:35;6.97;;;4.22;;
80163;SDS011;70071;55.130;61.268;2023-07-13T18:37:07;6.68;;;4.72;;
80163;SDS011;70071;55.130;61.268;2023-07-13T18:39:48;6.82;;;5.75;;
80163;SDS011;70071;55.130;61.268;2023-07-13T18:42:18;7.30;;;5.70;;
80163;SDS011;70071;55.130;61.268;2023-07-13T18:44:45;8.23;;;5.68;;
80163;SDS011;70071;55.130;61.268;2023-07-13T18:47:14;5.70;;;4.45;;
80163;SDS011;70071;55.130;61.268;2023-07-13T18:49:43;6.65;;;5.30;;
80163;SDS011;70071;55.130;61.268;2023-07-13T18:52:18;6.10;;;4.57;;
80163;SDS011;70071;55.130;61.268;2023-07-13T18:54:45;6.38;;;4.15;;
80163;SDS011;70071;55.130;61.268;2023-07-13T18:57:11;5.00;;;4.18;;
80163;SDS011;70071;55.130;61.268;2023-07-13T18:59:37;5.28;;;3.58;;
80163;SDS011;70071;55.130;61.268;2023-07-13T19:02:09;6.80;;;4.40;;
80163;SDS011;70071;55.130;61.268;2023-07-13T19:04:36;4.78;;;4.03;;
80163;SDS011;70071;55.130;61.268;2023-07-13T19:07:02;6.97;;;4.22;;
80163;SDS011;70071;55.130;61.268;2023-07-13T19:09:28;6.25;;;3.90;;
80163;SDS011;70071;55.130;61.268;2023-07-13T19:11:54;7.00;;;4.80;;
80163;SDS011;70071;55.130;61.268;2023-07-13T19:14:21;6.90;;;4.70;;
80163;SDS011;70071;55.130;61.268;2023-07-13T19:16:48;5.32;;;3.85;;
80163;SDS011;70071;55.130;61.268;2023-07-13T19:19:15;4.63;;;3.80;;
80163;SDS011;70071;55.130;61.268;2023-07-13T19:21:42;4.57;;;3.85;;
80163;SDS011;70071;55.130;61.268;2023-07-13T19:24:13;6.65;;;3.80;;
80163;SDS011;70071;55.130;61.268;2023-07-13T19:26:44;6.90;;;4.35;;
80163;SDS011;70071;55.130;61.268;2023-07-13T19:29:16;5.32;;;4.07;;
80163;SDS011;70071;55.130;61.268;2023-07-13T19:31:45;5.47;;;4.63;;
80163;SDS011;70071;55.130;61.268;2023-07-13T19:34:16;4.80;;;3.45;;
80163;SDS011;70071;55.130;61.268;2023-07-13T19:37:14;4.60;;;3.95;;
80163;SDS011;70071;55.130;61.268;2023-07-13T19:39:42;5.40;;;3.70;;
80163;SDS011;70071;55.130;61.268;2023-07-13T19:42:14;4.38;;;3.40;;
80163;SDS011;70071;55.130;61.268;2023-07-13T19:44:43;5.30;;;3.53;;
80163;SDS011;70071;55.130;61.268;2023-07-13T19:47:12;5.10;;;3.35;;
80163;SDS011;70071;55.130;61.268;2023-07-13T19:49:39;5.38;;;3.97;;
80163;SDS011;70071;55.130;61.268;2023-07-13T19:52:11;5.07;;;3.40;;
80163;SDS011;70071;55.130;61.268;2023-07-13T19:54:38;4.90;;;3.38;;
80163;SDS011;70071;55.130;61.268;2023-07-13T19:57:14;4.88;;;3.13;;
80163;SDS011;70071;55.130;61.268;2023-07-13T19:59:41;4.70;;;3.55;;
80163;SDS011;70071;55.130;61.268;2023-07-13T20:02:07;2.92;;;2.42;;
80163;SDS011;70071;55.130;61.268;2023-07-13T20:04:33;3.22;;;2.92;;
80163;SDS011;70071;55.130;61.268;2023-07-13T20:06:59;4.78;;;3.13;;
80163;SDS011;70071;55.130;61.268;2023-07-13T20:09:26;4.57;;;3.40;;
80163;SDS011;70071;55.130;61.268;2023-07-13T20:11:53;3.95;;;2.83;;
80163;SDS011;70071;55.130;61.268;2023-07-13T20:16:46;3.35;;;2.65;;
80163;SDS011;70071;55.130;61.268;2023-07-13T20:19:13;3.05;;;2.40;;
80163;SDS011;70071;55.130;61.268;2023-07-13T20:21:41;3.70;;;2.70;;
80163;SDS011;70071;55.130;61.268;2023-07-13T20:24:14;3.00;;;2.50;;
80163;SDS011;70071;55.130;61.268;2023-07-13T20:26:46;4.07;;;2.80;;
80163;SDS011;70071;55.130;61.268;2023-07-13T20:29:15;3.03;;;2.70;;
80163;SDS011;70071;55.130;61.268;2023-07-13T20:31:41;4.07;;;2.90;;
80163;SDS011;70071;55.130;61.268;2023-07-13T20:34:13;2.67;;;2.05;;
80163;SDS011;70071;55.130;61.268;2023-07-13T20:36:54;2.53;;;2.33;;
80163;SDS011;70071;55.130;61.268;2023-07-13T20:39:21;2.03;;;1.83;;
80163;SDS011;70071;55.130;61.268;2023-07-13T20:41:48;3.42;;;2.58;;
80163;SDS011;70071;55.130;61.268;2023-07-13T20:44:14;2.50;;;2.17;;
80163;SDS011;70071;55.130;61.268;2023-07-13T20:49:05;4.78;;;2.63;;
80163;SDS011;70071;55.130;61.268;2023-07-13T20:53:57;3.03;;;2.72;;
80163;SDS011;70071;55.130;61.268;2023-07-13T20:56:25;3.15;;;2.70;;
80163;SDS011;70071;55.130;61.268;2023-07-13T20:58:52;3.92;;;2.72;;
80163;SDS011;70071;55.130;61.268;2023-07-13T21:04:00;5.43;;;2.72;;
80163;SDS011;70071;55.130;61.268;2023-07-13T21:06:28;2.83;;;2.50;;
80163;SDS011;70071;55.130;61.268;2023-07-13T21:08:56;3.13;;;2.55;;
80163;SDS011;70071;55.130;61.268;2023-07-13T21:11:22;3.55;;;2.53;;
80163;SDS011;70071;55.130;61.268;2023-07-13T21:13:48;5.15;;;2.83;;
80163;SDS011;70071;55.130;61.268;2023-07-13T21:18:43;2.80;;;2.40;;
80163;SDS011;70071;55.130;61.268;2023-07-13T21:21:11;2.65;;;2.40;;
80163;SDS011;70071;55.130;61.268;2023-07-13T21:23:39;3.33;;;2.45;;
80163;SDS011;70071;55.130;61.268;2023-07-13T21:28:36;3.22;;;2.42;;
80163;SDS011;70071;55.130;61.268;2023-07-13T21:33:36;3.22;;;2.05;;
80163;SDS011;70071;55.130;61.268;2023-07-13T21:36:03;3.35;;;1.90;;
80163;SDS011;70071;55.130;61.268;2023-07-13T21:38:31;3.13;;;2.10;;
80163;SDS011;70071;55.130;61.268;2023-07-13T21:41:00;3.10;;;2.20;;
80163;SDS011;70071;55.130;61.268;2023-07-13T21:43:38;2.65;;;2.00;;
80163;SDS011;70071;55.130;61.268;2023-07-13T21:48:29;2.45;;;2.00;;
80163;SDS011;70071;55.130;61.268;2023-07-13T21:53:25;2.03;;;1.83;;
80163;SDS011;70071;55.130;61.268;2023-07-13T21:55:52;3.92;;;1.90;;
80163;SDS011;70071;55.130;61.268;2023-07-13T21:58:37;2.42;;;2.22;;
80163;SDS011;70071;55.130;61.268;2023-07-13T22:01:03;2.03;;;1.83;;
80163;SDS011;70071;55.130;61.268;2023-07-13T22:03:42;2.22;;;1.98;;
80163;SDS011;70071;55.130;61.268;2023-07-13T22:06:19;2.78;;;2.05;;
80163;SDS011;70071;55.130;61.268;2023-07-13T22:08:46;2.78;;;1.90;;
80163;SDS011;70071;55.130;61.268;2023-07-13T22:11:13;2.70;;;1.92;;
80163;SDS011;70071;55.130;61.268;2023-07-13T22:13:44;2.67;;;2.38;;
80163;SDS011;70071;55.130;61.268;2023-07-13T22:16:14;2.60;;;1.80;;
80163;SDS011;70071;55.130;61.268;2023-07-13T22:18:44;3.45;;;1.92;;
80163;SDS011;70071;55.130;61.268;2023-07-13T22:21:11;2.13;;;1.92;;
80163;SDS011;70071;55.130;61.268;2023-07-13T22:23:39;2.72;;;2.17;;
80163;SDS011;70071;55.130;61.268;2023-07-13T22:26:17;2.78;;;2.03;;
80163;SDS011;70071;55.130;61.268;2023-07-13T22:28:50;2.60;;;2.08;;
80163;SDS011;70071;55.130;61.268;2023-07-13T22:31:18;2.30;;;1.70;;
80163;SDS011;70071;55.130;61.268;2023-07-13T22:33:45;2.58;;;1.90;;
80163;SDS011;70071;55.130;61.268;2023-07-13T22:38:37;3.50;;;1.80;;
80163;SDS011;70071;55.130;61.268;2023-07-13T22:41:05;2.78;;;1.90;;
80163;SDS011;70071;55.130;61.268;2023-07-13T22:43:33;2.67;;;1.73;;
80163;SDS011;70071;55.130;61.268;2023-07-13T22:48:27;3.65;;;1.70;;
80163;SDS011;70071;55.130;61.268;2023-07-13T22:50:57;1.73;;;1.60;;
80163;SDS011;70071;55.130;61.268;2023-07-13T22:55:50;2.60;;;2.00;;
80163;SDS011;70071;55.130;61.268;2023-07-13T22:58:17;2.28;;;2.08;;
80163;SDS011;70071;55.130;61.268;2023-07-13T23:03:28;2.50;;;2.30;;
80163;SDS011;70071;55.130;61.268;2023-07-13T23:05:58;3.63;;;2.15;;
80163;SDS011;70071;55.130;61.268;2023-07-13T23:08:26;2.70;;;1.90;;
80163;SDS011;70071;55.130;61.268;2023-07-13T23:10:53;3.80;;;2.40;;
80163;SDS011;70071;55.130;61.268;2023-07-13T23:13:27;2.78;;;2.33;;
80163;SDS011;70071;55.130;61.268;2023-07-13T23:15:54;4.05;;;2.65;;
80163;SDS011;70071;55.130;61.268;2023-07-13T23:18:20;3.45;;;2.33;;
80163;SDS011;70071;55.130;61.268;2023-07-13T23:23:13;2.70;;;2.40;;
80163;SDS011;70071;55.130;61.268;2023-07-13T23:25:42;2.85;;;2.30;;
80163;SDS011;70071;55.130;61.268;2023-07-13T23:28:08;2.95;;;2.63;;
80163;SDS011;70071;55.130;61.268;2023-07-13T23:30:34;2.60;;;2.10;;
80163;SDS011;70071;55.130;61.268;2023-07-13T23:33:02;3.88;;;2.17;;
80163;SDS011;70071;55.130;61.268;2023-07-13T23:35:37;4.22;;;2.65;;
80163;SDS011;70071;55.130;61.268;2023-07-13T23:38:03;2.80;;;2.50;;
80163;SDS011;70071;55.130;61.268;2023-07-13T23:40:28;3.25;;;2.60;;
80163;SDS011;70071;55.130;61.268;2023-07-13T23:42:54;11.32;;;8.32;;
80163;SDS011;70071;55.130;61.268;2023-07-13T23:47:51;4.18;;;3.03;;
80163;SDS011;70071;55.130;61.268;2023-07-13T23:50:20;4.60;;;3.10;;
80163;SDS011;70071;55.130;61.268;2023-07-13T23:52:48;3.60;;;2.75;;
80163;SDS011;70071;55.130;61.268;2023-07-13T23:57:48;3.35;;;2.90;;
